Time;durP1;ratioP1;P1;durP2;ratioP2;P2;SDS_P1;SDS_P2;PMS_P1;PMS_P2;Temp;Humidity;BMP_temperature;BMP_pressure;BME280_temperature;BME280_humidity;BME280_pressure;Samples;Min_cycle;Max_cycle;Signal;HPM_P1;HPM_P2
2023/06/17 00:00:22;;;;;;;;;17.33;13.67;;;;;26.72;30.56;100931.88;6118714;23;45421;-63
2023/06/17 00:02:48;;;;;;;;;21.50;18.75;;;;;27.06;30.48;100990.88;6117945;23;45418;-61
2023/06/17 00:05:13;;;;;;;;;20.00;15.00;;;;;26.95;31.38;100958.41;6117587;23;45349;-63
2023/06/17 00:07:39;;;;;;;;;18.75;17.50;;;;;27.10;30.86;100996.19;6117663;23;46523;-63
2023/06/17 00:10:06;;;;;;;;;20.00;16.75;;;;;27.11;31.05;100992.50;6091155;23;45514;-63
2023/06/17 00:12:31;;;;;;;;;17.25;15.50;;;;;27.08;30.96;100995.38;6117709;23;45377;-61
2023/06/17 00:15:01;;;;;;;;;24.25;23.00;;;;;27.09;30.94;100983.44;6117788;23;45327;-62
2023/06/17 00:17:29;;;;;;;;;16.75;16.75;;;;;27.06;31.09;100972.59;6117304;23;45484;-63
2023/06/17 00:19:56;;;;;;;;;17.75;13.75;;;;;26.92;30.87;100953.91;6117516;23;45450;-61
2023/06/17 00:22:25;;;;;;;;;14.50;12.75;;;;;26.94;30.94;100976.72;6115546;23;45405;-63
2023/06/17 00:24:51;;;;;;;;;13.00;10.00;;;;;26.80;31.10;100958.03;6117524;23;45360;-64
2023/06/17 00:27:16;;;;;;;;;17.50;15.00;;;;;26.89;31.15;100983.31;6116550;23;45432;-63
2023/06/17 00:29:42;;;;;;;;;17.25;15.00;;;;;26.83;31.15;100979.84;6117564;23;45635;-61
2023/06/17 00:32:07;;;;;;;;;16.67;15.33;;;;;26.82;31.51;100974.41;6117554;23;45332;-63
2023/06/17 00:34:32;;;;;;;;;11.00;10.00;;;;;26.81;31.40;100975.34;6116785;23;45595;-61
2023/06/17 00:36:58;;;;;;;;;16.00;13.67;;;;;26.71;31.17;100960.22;6117355;23;45792;-65
2023/06/17 00:39:23;;;;;;;;;16.50;15.25;;;;;26.79;31.21;100972.66;6116939;23;45238;-65
2023/06/17 00:41:49;;;;;;;;;13.50;12.75;;;;;26.70;31.21;100956.59;6116663;23;45403;-64
2023/06/17 00:44:14;;;;;;;;;13.75;12.25;;;;;26.69;31.39;100949.31;6116397;23;45739;-62
2023/06/17 00:46:43;;;;;;;;;12.75;12.75;;;;;26.66;31.58;100946.69;6116650;23;45341;-66
2023/06/17 00:49:10;;;;;;;;;14.67;14.33;;;;;26.70;31.46;100953.84;6117864;23;45434;-63
2023/06/17 00:51:36;;;;;;;;;17.50;16.75;;;;;26.64;31.49;100940.38;6116409;23;45436;-66
2023/06/17 00:54:02;;;;;;;;;16.25;14.50;;;;;26.55;31.83;100929.75;6117797;23;45431;-62
2023/06/17 00:56:31;;;;;;;;;17.67;13.00;;;;;26.59;31.54;100940.50;6117636;23;46318;-63
2023/06/17 00:58:57;;;;;;;;;15.50;12.50;;;;;26.50;31.27;100932.63;6116826;23;45307;-63
2023/06/17 01:01:25;;;;;;;;;16.00;14.25;;;;;26.46;31.85;100925.47;6117092;23;45406;-63
2023/06/17 01:03:53;;;;;;;;;16.25;14.25;;;;;26.40;32.28;100909.25;6115771;23;45302;-62
2023/06/17 01:06:29;;;;;;;;;16.00;15.00;;;;;26.44;31.94;100932.84;6115945;23;45482;-62
2023/06/17 01:09:01;;;;;;;;;15.50;13.25;;;;;26.23;31.94;100887.97;6116736;23;45512;-63
2023/06/17 01:11:29;;;;;;;;;13.50;13.00;;;;;26.47;31.75;100916.31;6118629;23;45353;-63
2023/06/17 01:13:56;;;;;;;;;15.00;13.33;;;;;26.43;31.73;100923.75;6117672;23;45401;-62
2023/06/17 01:16:22;;;;;;;;;20.00;17.75;;;;;26.34;32.19;100906.75;6116873;23;46426;-62
2023/06/17 01:18:52;;;;;;;;;12.75;12.75;;;;;26.38;32.09;100917.56;6116971;23;45276;-65
2023/06/17 01:21:18;;;;;;;;;14.75;13.25;;;;;26.43;32.17;100920.09;6116203;23;45467;-66
2023/06/17 01:23:44;;;;;;;;;17.50;15.00;;;;;26.46;31.92;100920.00;6114879;23;45276;-64
2023/06/17 01:26:10;;;;;;;;;13.75;12.25;;;;;26.49;31.97;100926.25;6117056;23;46396;-63
2023/06/17 01:28:36;;;;;;;;;16.25;15.25;;;;;26.49;32.09;100928.09;6117103;23;45350;-62
2023/06/17 01:31:02;;;;;;;;;17.00;14.00;;;;;26.40;32.29;100925.69;6116680;23;45210;-62
2023/06/17 01:33:27;;;;;;;;;16.25;15.00;;;;;26.34;32.44;100918.59;6092089;23;45234;-61
2023/06/17 01:36:09;;;;;;;;;16.00;13.25;;;;;26.30;32.33;100927.91;6119390;23;46079;-65
2023/06/17 01:38:48;;;;;;;;;18.50;14.75;;;;;26.29;32.15;100921.50;6118352;23;45315;-64
2023/06/17 01:41:19;;;;;;;;;14.50;13.25;;;;;26.27;32.39;100923.41;6118994;23;45340;-62
2023/06/17 01:43:45;;;;;;;;;14.00;13.25;;;;;26.27;32.46;100917.06;6120562;23;45158;-61
2023/06/17 01:46:14;;;;;;;;;17.00;14.50;;;;;26.16;32.45;100903.72;6119799;23;47111;-64
2023/06/17 01:48:41;;;;;;;;;19.00;14.33;;;;;26.27;32.40;100908.84;6119586;23;45587;-62
2023/06/17 01:51:06;;;;;;;;;16.25;16.25;;;;;26.28;32.45;100906.03;6117150;23;45489;-63
2023/06/17 01:53:32;;;;;;;;;12.67;12.67;;;;;26.23;32.49;100891.63;6117460;23;45281;-62
2023/06/17 01:55:58;;;;;;;;;12.00;12.00;;;;;26.29;32.53;100913.28;6119394;23;47470;-61
2023/06/17 01:58:23;;;;;;;;;15.50;14.25;;;;;26.23;32.50;100899.84;6117708;23;45238;-63
2023/06/17 02:00:49;;;;;;;;;16.75;12.00;;;;;26.19;32.39;100895.41;6119723;23;45249;-62
2023/06/17 02:03:15;;;;;;;;;16.00;15.00;;;;;26.18;32.87;100911.88;6118929;23;45312;-64
2023/06/17 02:05:42;;;;;;;;;14.00;13.33;;;;;26.14;32.99;100905.63;6117284;23;45922;-63
2023/06/17 02:08:07;;;;;;;;;13.75;12.75;;;;;26.13;32.85;100912.06;6117886;23;45214;-64
2023/06/17 02:10:33;;;;;;;;;11.00;11.00;;;;;26.13;32.74;100900.22;6117435;23;45488;-61
2023/06/17 02:13:01;;;;;;;;;15.50;13.50;;;;;26.08;33.17;100908.59;6118920;23;45360;-62
2023/06/17 02:15:27;;;;;;;;;12.25;11.50;;;;;25.91;33.10;100895.47;6117539;23;45471;-63
2023/06/17 02:17:53;;;;;;;;;14.00;14.00;;;;;25.92;33.08;100906.38;6118090;23;45315;-63
2023/06/17 02:20:18;;;;;;;;;17.25;12.75;;;;;25.85;33.46;100904.78;6118594;23;45260;-63
2023/06/17 02:22:44;;;;;;;;;14.50;13.25;;;;;25.75;33.44;100892.34;6117833;23;45394;-62
2023/06/17 02:25:09;;;;;;;;;17.50;13.25;;;;;25.79;33.83;100905.00;6115952;23;47230;-63
2023/06/17 02:27:35;;;;;;;;;14.33;12.67;;;;;25.81;33.54;100911.31;6116850;23;52870;-62
2023/06/17 02:30:00;;;;;;;;;16.33;13.67;;;;;25.77;33.43;100898.66;6118547;23;45522;-62
2023/06/17 02:32:27;;;;;;;;;11.00;11.00;;;;;25.68;33.75;100874.38;6117577;23;45427;-61
2023/06/17 02:34:53;;;;;;;;;19.75;14.50;;;;;25.84;33.90;100881.09;6117858;23;46072;-61
2023/06/17 02:37:18;;;;;;;;;11.33;11.33;;;;;25.86;33.80;100886.53;6117519;23;45348;-65
2023/06/17 02:39:43;;;;;;;;;16.25;14.50;;;;;25.81;33.86;100883.94;6118244;23;45261;-61
2023/06/17 02:42:11;;;;;;;;;14.00;14.00;;;;;25.79;33.77;100880.38;6118436;23;45433;-61
2023/06/17 02:44:37;;;;;;;;;13.25;11.50;;;;;25.83;34.06;100878.41;6117984;23;45351;-60
2023/06/17 02:47:03;;;;;;;;;15.75;14.50;;;;;25.82;34.06;100877.53;6118909;23;45291;-62
2023/06/17 02:49:28;;;;;;;;;17.75;14.75;;;;;25.78;33.94;100881.31;6118847;23;45648;-63
2023/06/17 02:51:54;;;;;;;;;14.50;12.50;;;;;25.75;34.00;100871.38;6118666;23;45370;-65
2023/06/17 02:54:19;;;;;;;;;12.75;12.00;;;;;25.56;34.20;100838.28;6117641;23;46406;-65
2023/06/17 02:56:45;;;;;;;;;14.00;14.00;;;;;25.75;33.66;100863.16;6117503;23;45417;-63
2023/06/17 02:59:12;;;;;;;;;12.00;12.00;;;;;25.69;34.11;100857.91;6118359;23;45300;-63
2023/06/17 03:01:41;;;;;;;;;17.50;14.75;;;;;25.68;34.64;100861.56;6116853;23;46355;-66
2023/06/17 03:04:10;;;;;;;;;20.00;17.00;;;;;25.71;34.26;100866.06;6117218;23;46252;-64
2023/06/17 03:06:36;;;;;;;;;17.00;15.50;;;;;25.66;34.53;100851.66;6116436;23;45585;-65
2023/06/17 03:09:03;;;;;;;;;18.00;13.25;;;;;25.67;33.94;100858.88;6116840;23;45293;-68
2023/06/17 03:11:29;;;;;;;;;12.75;12.50;;;;;25.66;33.94;100849.78;6118399;23;45415;-65
2023/06/17 03:13:55;;;;;;;;;17.75;15.00;;;;;25.60;34.08;100855.47;6117315;23;47088;-63
2023/06/17 03:16:24;;;;;;;;;17.25;15.75;;;;;25.62;34.61;100859.03;6117155;23;45414;-62
2023/06/17 03:18:49;;;;;;;;;14.33;12.33;;;;;25.56;35.10;100865.63;6115562;23;45285;-66
2023/06/17 03:21:15;;;;;;;;;12.75;10.75;;;;;25.52;34.62;100863.97;6117865;23;45313;-62
2023/06/17 03:23:40;;;;;;;;;15.75;13.50;;;;;25.49;35.09;100872.28;6117860;23;47233;-61
2023/06/17 03:26:07;;;;;;;;;14.75;13.00;;;;;25.47;34.90;100868.66;6116993;23;45436;-62
2023/06/17 03:28:32;;;;;;;;;14.50;14.50;;;;;25.48;35.24;100870.47;6118911;23;45225;-62
2023/06/17 03:30:57;;;;;;;;;13.50;13.50;;;;;25.44;35.16;100862.41;6116887;23;45525;-65
2023/06/17 03:33:23;;;;;;;;;17.75;15.50;;;;;25.44;35.11;100862.41;6118095;23;45341;-62
2023/06/17 03:35:48;;;;;;;;;15.50;13.00;;;;;25.17;34.94;100805.81;6120719;23;57394;-62
2023/06/17 03:38:14;;;;;;;;;16.33;13.33;;;;;25.51;35.07;100859.44;6119150;23;45786;-62
2023/06/17 03:40:39;;;;;;;;;12.50;12.50;;;;;25.52;34.77;100855.75;6118560;23;45409;-62
2023/06/17 03:43:05;;;;;;;;;14.33;13.00;;;;;25.42;35.41;100848.78;6117484;23;45936;-62
2023/06/17 03:45:30;;;;;;;;;20.67;13.33;;;;;25.45;35.46;100850.53;6117502;23;45345;-61
2023/06/17 03:47:57;;;;;;;;;14.50;13.50;;;;;25.45;35.49;100850.53;6117653;23;45307;-61
2023/06/17 03:50:23;;;;;;;;;15.00;13.75;;;;;25.41;34.99;100847.03;6117594;23;45386;-63
2023/06/17 03:52:48;;;;;;;;;14.25;12.75;;;;;25.52;35.24;100857.56;6116766;23;45239;-65
2023/06/17 03:55:13;;;;;;;;;14.75;13.00;;;;;25.53;34.98;100856.63;6118211;23;45316;-64
2023/06/17 03:57:40;;;;;;;;;15.00;13.00;;;;;25.47;34.89;100851.38;6118235;23;51050;-64
2023/06/17 04:00:06;;;;;;;;;18.25;15.25;;;;;25.41;34.94;100838.81;6117876;23;45503;-62
2023/06/17 04:02:31;;;;;;;;;16.25;12.75;;;;;25.48;35.27;100858.66;6118450;23;46146;-61
2023/06/17 04:05:00;;;;;;;;;16.25;14.50;;;;;25.53;35.00;100856.63;6117461;23;45248;-64
2023/06/17 04:07:27;;;;;;;;;15.50;14.00;;;;;25.35;35.43;100837.16;6117252;23;45257;-61
2023/06/17 04:09:52;;;;;;;;;16.50;15.50;;;;;25.45;34.99;100862.38;6119225;23;45358;-61
2023/06/17 04:12:18;;;;;;;;;15.00;14.25;;;;;25.44;35.65;100859.69;6118263;23;45346;-62
2023/06/17 04:14:43;;;;;;;;;12.33;12.00;;;;;25.27;35.52;100842.00;6118613;23;45346;-64
2023/06/17 04:17:08;;;;;;;;;19.50;17.00;;;;;25.43;35.60;100850.59;6117179;23;45501;-65
2023/06/17 04:19:37;;;;;;;;;16.67;16.33;;;;;25.30;35.76;100852.84;6118812;23;45313;-61
2023/06/17 04:22:06;;;;;;;;;14.33;12.00;;;;;25.36;35.16;100860.84;6118286;23;45498;-61
2023/06/17 04:24:32;;;;;;;;;17.50;15.75;;;;;25.36;35.53;100855.38;6116627;23;45356;-62
2023/06/17 04:26:58;;;;;;;;;13.75;11.00;;;;;25.32;35.44;100852.78;6117901;23;45319;-61
2023/06/17 04:29:23;;;;;;;;;17.25;16.75;;;;;25.32;35.31;100858.25;6117746;23;45457;-62
2023/06/17 04:31:49;;;;;;;;;13.00;12.33;;;;;25.32;35.44;100861.00;6118735;23;45379;-62
2023/06/17 04:34:22;;;;;;;;;14.33;11.67;;;;;25.35;35.73;100866.34;6118709;23;45191;-62
2023/06/17 04:36:56;;;;;;;;;18.75;15.75;;;;;25.28;35.50;100862.06;6118218;23;45433;-61
2023/06/17 04:39:23;;;;;;;;;14.67;12.00;;;;;25.29;35.79;100864.75;6118573;23;45467;-63
2023/06/17 04:41:49;;;;;;;;;14.00;12.50;;;;;25.32;35.38;100869.19;6117597;23;45310;-63
2023/06/17 04:44:15;;;;;;;;;11.67;11.67;;;;;25.29;35.63;100872.03;6117485;23;45335;-61
2023/06/17 04:46:41;;;;;;;;;12.50;11.50;;;;;24.96;35.87;100812.00;6117965;23;45280;-66
2023/06/17 04:49:06;;;;;;;;;16.25;14.25;;;;;25.29;35.92;100867.47;6118207;23;45269;-64
2023/06/17 04:51:37;;;;;;;;;18.00;13.50;;;;;25.29;35.64;100863.81;6117384;23;45336;-62
2023/06/17 04:54:05;;;;;;;;;13.25;13.25;;;;;25.28;35.88;100856.59;6116946;23;45303;-61
2023/06/17 04:56:30;;;;;;;;;13.25;13.25;;;;;25.31;36.16;100856.44;6118035;23;45492;-61
2023/06/17 04:58:56;;;;;;;;;14.00;13.75;;;;;25.29;35.34;100852.88;6117990;23;45367;-65
2023/06/17 05:01:21;;;;;;;;;13.50;13.50;;;;;25.25;35.54;100848.44;6117377;23;52223;-61
2023/06/17 05:03:46;;;;;;;;;21.00;16.75;;;;;25.27;35.93;100850.19;6118850;23;45516;-62
2023/06/17 05:06:12;;;;;;;;;15.50;15.50;;;;;25.30;35.77;100849.22;6118176;23;45367;-63
2023/06/17 05:08:37;;;;;;;;;15.75;14.50;;;;;25.24;35.60;100832.97;6118373;23;45507;-61
2023/06/17 05:11:02;;;;;;;;;15.50;9.00;;;;;25.33;36.05;100844.53;6117665;23;45546;-62
2023/06/17 05:13:28;;;;;;;;;16.00;12.50;;;;;25.36;35.86;100843.53;6114670;23;45728;-61
2023/06/17 05:15:53;;;;;;;;;17.25;16.75;;;;;25.26;35.92;100836.53;6117609;23;45240;-62
2023/06/17 05:18:18;;;;;;;;;13.00;13.00;;;;;25.27;36.02;100849.31;6117583;23;45277;-62
2023/06/17 05:20:44;;;;;;;;;13.75;11.50;;;;;25.28;35.65;100840.16;6118935;23;45336;-67
2023/06/17 05:23:09;;;;;;;;;13.75;11.00;;;;;25.33;35.83;100852.72;6119331;23;45247;-62
2023/06/17 05:25:35;;;;;;;;;13.75;13.75;;;;;25.37;35.91;100851.66;6118081;23;45533;-61
2023/06/17 05:28:00;;;;;;;;;15.25;13.50;;;;;25.35;36.10;100845.38;6117654;23;45374;-61
2023/06/17 05:30:25;;;;;;;;;14.00;13.00;;;;;25.41;35.95;100848.84;6116638;23;60618;-63
2023/06/17 05:32:51;;;;;;;;;19.25;16.50;;;;;25.24;35.57;100827.50;6117240;23;45715;-61
2023/06/17 05:35:16;;;;;;;;;13.75;11.75;;;;;25.39;36.03;100848.88;6117807;23;45509;-61
2023/06/17 05:37:41;;;;;;;;;12.67;12.67;;;;;25.42;35.81;100846.06;6117623;23;45317;-62
2023/06/17 05:40:07;;;;;;;;;15.50;11.75;;;;;25.35;35.68;100830.81;6118958;23;46207;-63
2023/06/17 05:42:32;;;;;;;;;11.33;10.33;;;;;25.47;35.58;100844.03;6117320;23;45341;-60
2023/06/17 05:44:58;;;;;;;;;12.75;12.00;;;;;25.51;35.44;100843.00;6118265;23;45519;-61
2023/06/17 05:47:23;;;;;;;;;13.00;12.25;;;;;25.49;36.05;100836.72;6114511;23;45515;-61
2023/06/17 05:49:48;;;;;;;;;12.00;11.75;;;;;25.49;35.32;100831.25;6116567;23;63220;-60
2023/06/17 05:52:14;;;;;;;;;13.33;11.33;;;;;25.54;35.43;100839.25;6117745;23;45430;-61
2023/06/17 05:54:39;;;;;;;;;14.50;12.75;;;;;25.49;35.85;100825.78;6117882;23;45399;-60
2023/06/17 05:57:05;;;;;;;;;15.00;13.50;;;;;25.53;35.35;100827.44;6118106;23;45385;-62
2023/06/17 05:59:30;;;;;;;;;12.25;12.25;;;;;25.59;35.76;100847.31;6117404;23;45967;-61
2023/06/17 06:01:55;;;;;;;;;18.00;12.25;;;;;25.54;35.75;100834.72;6116362;23;45213;-60
2023/06/17 06:04:21;;;;;;;;;13.50;13.50;;;;;25.62;35.17;100841.75;6116244;23;56334;-65
2023/06/17 06:06:46;;;;;;;;;15.67;12.67;;;;;25.68;35.59;100847.00;6117477;23;45472;-61
2023/06/17 06:09:11;;;;;;;;;9.33;9.00;;;;;25.65;35.17;100850.72;6115859;23;47327;-61
2023/06/17 06:11:37;;;;;;;;;14.75;12.50;;;;;25.69;35.40;100855.16;6117954;23;45187;-60
2023/06/17 06:14:03;;;;;;;;;14.75;12.25;;;;;25.67;34.83;100843.38;6117805;23;45208;-60
2023/06/17 06:16:29;;;;;;;;;15.25;14.25;;;;;25.61;34.85;100842.72;6119311;23;45339;-61
2023/06/17 06:18:54;;;;;;;;;18.00;13.75;;;;;25.74;34.37;100855.91;6117937;23;46263;-63
2023/06/17 06:21:20;;;;;;;;;14.25;12.50;;;;;25.77;34.65;100854.00;6118527;23;45347;-61
2023/06/17 06:23:45;;;;;;;;;17.50;13.00;;;;;25.83;34.65;100862.00;6115699;23;45328;-64
2023/06/17 06:26:11;;;;;;;;;10.33;9.33;;;;;25.87;34.10;100855.44;6119206;23;45414;-61
2023/06/17 06:28:36;;;;;;;;;12.50;11.25;;;;;25.87;34.16;100867.31;6118859;23;45885;-61
2023/06/17 06:31:02;;;;;;;;;12.50;11.25;;;;;25.90;34.21;100866.28;6130913;23;45020;-64
2023/06/17 06:33:27;;;;;;;;;13.00;13.00;;;;;25.94;34.07;100863.41;6122716;23;45512;-63
2023/06/17 06:35:53;;;;;;;;;13.75;11.50;;;;;25.98;34.29;100868.81;6118204;23;45407;-62
2023/06/17 06:38:18;;;;;;;;;18.50;15.25;;;;;25.98;34.23;100871.53;6119172;23;45614;-63
2023/06/17 06:40:43;;;;;;;;;13.67;12.00;;;;;25.94;34.28;100862.50;6118798;23;45351;-61
2023/06/17 06:43:09;;;;;;;;;16.67;14.00;;;;;26.04;34.03;100869.47;6118018;23;45941;-62
2023/06/17 06:45:34;;;;;;;;;15.50;13.75;;;;;26.04;33.98;100858.53;6118162;23;45297;-62
2023/06/17 06:47:59;;;;;;;;;11.75;10.75;;;;;26.17;33.58;100872.66;6117356;23;48066;-61
2023/06/17 06:50:25;;;;;;;;;12.50;10.75;;;;;26.23;33.29;100871.53;6126018;23;45449;-60
2023/06/17 06:52:50;;;;;;;;;11.75;10.25;;;;;26.29;33.70;100876.78;6130901;23;45162;-59
2023/06/17 06:55:16;;;;;;;;;12.33;11.33;;;;;26.04;33.74;100827.53;6130226;23;45186;-61
2023/06/17 06:57:41;;;;;;;;;16.67;13.33;;;;;26.42;33.64;100882.72;6129684;23;45522;-60
2023/06/17 07:00:09;;;;;;;;;11.75;11.00;;;;;26.40;33.50;100868.16;6129566;23;45145;-63
2023/06/17 07:02:35;;;;;;;;;12.00;11.00;;;;;26.58;33.53;100875.69;6130227;23;44968;-61
2023/06/17 07:05:01;;;;;;;;;13.50;13.25;;;;;26.65;33.09;100882.75;6130740;23;45071;-60
2023/06/17 07:07:26;;;;;;;;;11.25;11.00;;;;;26.66;32.80;100879.06;6127019;23;45233;-61
2023/06/17 07:09:52;;;;;;;;;9.67;8.33;;;;;26.69;32.84;100871.69;6130856;23;45068;-61
2023/06/17 07:12:17;;;;;;;;;12.00;9.00;;;;;26.70;32.97;100881.69;6131265;23;44965;-60
2023/06/17 07:14:43;;;;;;;;;14.33;12.67;;;;;26.68;32.50;100876.28;6128900;23;44941;-62
2023/06/17 07:17:08;;;;;;;;;9.25;9.00;;;;;26.72;32.54;100875.19;6131794;23;44922;-60
2023/06/17 07:19:33;;;;;;;;;11.75;10.25;;;;;26.67;32.86;100871.75;6128942;23;45169;-62
2023/06/17 07:21:59;;;;;;;;;12.33;12.00;;;;;26.83;32.76;100877.53;6129143;23;44832;-64
2023/06/17 07:24:25;;;;;;;;;14.25;11.75;;;;;26.88;32.75;100871.84;6127919;23;45174;-60
2023/06/17 07:26:50;;;;;;;;;13.25;8.00;;;;;26.94;32.56;100888.97;6125299;23;45656;-61
2023/06/17 07:29:15;;;;;;;;;21.00;18.00;;;;;26.98;32.35;100881.50;6116506;23;45426;-62
2023/06/17 07:31:41;;;;;;;;;22.00;19.00;;;;;26.94;32.52;100877.09;6115016;23;45897;-60
2023/06/17 07:34:06;;;;;;;;;11.33;10.00;;;;;26.91;32.48;100872.63;6092860;23;45414;-62
2023/06/17 07:36:31;;;;;;;;;10.33;10.33;;;;;26.95;32.27;100870.66;6118521;23;45416;-62
2023/06/17 07:38:57;;;;;;;;;15.75;14.50;;;;;26.99;32.92;100875.06;6115332;23;45319;-60
2023/06/17 07:41:23;;;;;;;;;16.00;14.00;;;;;27.00;32.46;100879.59;6116851;23;45427;-62
2023/06/17 07:43:48;;;;;;;;;12.67;12.00;;;;;27.10;32.57;100886.47;6116328;23;45220;-61
2023/06/17 07:46:14;;;;;;;;;12.75;12.75;;;;;27.17;32.19;100881.63;6117498;23;45563;-65
2023/06/17 07:48:39;;;;;;;;;12.33;10.67;;;;;27.16;32.49;100871.66;6118870;23;45406;-61
2023/06/17 07:51:08;;;;;;;;;12.33;12.00;;;;;27.24;32.28;100885.94;6119203;23;45419;-62
2023/06/17 07:53:33;;;;;;;;;14.00;12.00;;;;;27.30;32.28;100885.69;6117290;23;45597;-62
2023/06/17 07:55:59;;;;;;;;;18.50;13.00;;;;;27.31;32.31;100868.28;6116172;23;47654;-62
2023/06/17 07:58:24;;;;;;;;;11.00;9.00;;;;;27.38;32.43;100885.41;6115640;23;45258;-63
2023/06/17 08:00:49;;;;;;;;;15.50;10.50;;;;;27.38;32.19;100888.13;6121457;23;48023;-63
2023/06/17 08:03:15;;;;;;;;;12.75;11.25;;;;;27.40;32.67;100883.47;6127112;23;44936;-63
2023/06/17 08:05:40;;;;;;;;;12.75;11.75;;;;;27.42;32.36;100880.66;6125085;23;46298;-68
2023/06/17 08:08:06;;;;;;;;;14.75;13.50;;;;;27.40;32.60;100872.50;6126608;23;44926;-61
2023/06/17 08:10:32;;;;;;;;;12.00;11.67;;;;;27.51;32.37;100883.91;6116687;23;45309;-63
2023/06/17 08:12:57;;;;;;;;;14.25;12.25;;;;;27.48;31.88;100875.81;6117434;23;45434;-64
2023/06/17 08:15:23;;;;;;;;;13.00;11.33;;;;;27.60;32.15;100889.97;6118126;23;46116;-68
2023/06/17 08:17:48;;;;;;;;;9.67;8.33;;;;;27.56;31.91;100872.75;6117262;23;45302;-61
2023/06/17 08:20:15;;;;;;;;;13.67;10.67;;;;;27.65;32.00;100879.69;6118232;23;45332;-62
2023/06/17 08:22:41;;;;;;;;;12.67;10.00;;;;;27.55;31.92;100858.16;6118371;23;45448;-60
2023/06/17 08:25:07;;;;;;;;;11.67;11.67;;;;;27.73;31.88;100872.91;6117998;23;45363;-60
2023/06/17 08:27:33;;;;;;;;;17.50;13.00;;;;;27.60;31.42;100849.69;6117887;23;45579;-62
2023/06/17 08:29:59;;;;;;;;;14.67;13.00;;;;;27.63;31.98;100851.44;6118311;23;45287;-64
2023/06/17 08:32:24;;;;;;;;;12.67;12.67;;;;;27.75;31.83;100876.50;6115661;23;45508;-62
2023/06/17 08:34:50;;;;;;;;;13.00;13.00;;;;;27.65;31.79;100852.25;6117256;23;45389;-65
2023/06/17 08:37:15;;;;;;;;;13.00;12.00;;;;;27.45;31.83;100828.41;6114889;23;54562;-62
2023/06/17 08:39:42;;;;;;;;;16.75;13.75;;;;;27.66;32.33;100854.91;6118561;23;45534;-64
2023/06/17 08:42:08;;;;;;;;;11.25;10.75;;;;;27.75;32.01;100854.53;6116851;23;45455;-61
2023/06/17 08:44:42;;;;;;;;;11.67;11.67;;;;;27.83;32.10;100851.44;6115788;23;48424;-62
2023/06/17 08:47:13;;;;;;;;;14.50;12.75;;;;;27.92;32.34;100858.41;6116254;23;45589;-62
2023/06/17 08:49:38;;;;;;;;;14.00;13.67;;;;;28.02;31.40;100857.03;6118794;23;45484;-63
2023/06/17 08:52:05;;;;;;;;;15.67;13.67;;;;;28.09;31.63;100846.69;6118279;23;46004;-62
2023/06/17 08:54:33;;;;;;;;;11.33;11.00;;;;;28.15;31.98;100834.50;6126122;23;46412;-61
2023/06/17 08:56:59;;;;;;;;;12.00;12.00;;;;;28.30;30.73;100840.19;6122130;23;45032;-62
2023/06/17 08:59:24;;;;;;;;;14.25;12.50;;;;;28.45;30.98;100843.22;6129704;23;44965;-62
2023/06/17 09:01:51;;;;;;;;;16.00;13.33;;;;;28.57;30.58;100836.25;6117618;23;45293;-62
2023/06/17 09:04:18;;;;;;;;;14.33;12.00;;;;;28.65;30.51;100834.94;6116851;23;45316;-65
2023/06/17 09:06:45;;;;;;;;;15.33;12.33;;;;;28.68;30.59;100828.41;6117851;23;45341;-63
2023/06/17 09:09:11;;;;;;;;;12.33;12.33;;;;;28.82;30.23;100835.97;6117227;23;45187;-64
2023/06/17 09:11:37;;;;;;;;;13.00;11.00;;;;;28.82;30.32;100830.47;6118109;23;45231;-63
2023/06/17 09:14:03;;;;;;;;;12.67;12.67;;;;;28.81;30.03;100824.09;6116506;23;45612;-63
2023/06/17 09:16:30;;;;;;;;;12.33;11.33;;;;;28.91;30.17;100830.03;6117826;23;45372;-68
2023/06/17 09:19:02;;;;;;;;;14.50;14.50;;;;;28.96;30.22;100836.19;6116516;23;45657;-67
2023/06/17 09:21:28;;;;;;;;;12.25;12.25;;;;;28.86;30.41;100797.25;6117945;23;45198;-67
2023/06/17 09:24:12;;;;;;;;;13.67;13.67;;;;;29.15;30.63;100838.91;6117495;23;46995;-65
2023/06/17 09:26:41;;;;;;;;;12.67;11.67;;;;;29.22;29.97;100837.69;6117756;23;45608;-65
2023/06/17 09:29:11;;;;;;;;;13.00;13.00;;;;;29.20;30.77;100825.88;6123830;23;45419;-67
2023/06/17 09:31:48;;;;;;;;;12.00;11.33;;;;;29.23;30.75;100833.94;6093768;23;45670;-65
2023/06/17 09:34:14;;;;;;;;;15.25;12.75;;;;;29.24;30.72;100832.13;6115623;23;45683;-68
2023/06/17 09:36:40;;;;;;;;;14.50;14.50;;;;;29.19;30.25;100823.19;6115514;23;45422;-67
2023/06/17 09:39:08;;;;;;;;;16.00;16.00;;;;;29.26;30.87;100832.03;6118068;23;45418;-68
2023/06/17 09:41:37;;;;;;;;;18.50;16.25;;;;;29.19;30.41;100821.34;6116863;23;45533;-67
2023/06/17 09:44:03;;;;;;;;;14.25;13.50;;;;;29.32;31.04;100817.94;6116825;23;45948;-65
2023/06/17 09:46:29;;;;;;;;;18.25;16.25;;;;;29.44;30.40;100831.09;6116616;23;45249;-65
2023/06/17 09:48:57;;;;;;;;;14.67;13.67;;;;;29.46;30.70;100828.25;6118539;23;45458;-67
2023/06/17 09:51:25;;;;;;;;;14.33;13.00;;;;;29.54;30.39;100829.66;6119364;23;45446;-69
2023/06/17 09:53:52;;;;;;;;;14.75;13.50;;;;;29.49;30.53;100806.09;6116563;23;48166;-71
2023/06/17 09:56:19;;;;;;;;;17.00;13.00;;;;;29.66;30.28;100821.72;6116227;23;45306;-62
2023/06/17 09:58:44;;;;;;;;;17.67;14.67;;;;;29.64;30.14;100805.28;6119890;23;45397;-66
2023/06/17 10:01:11;;;;;;;;;16.00;13.67;;;;;29.84;30.19;100819.91;6119193;23;45534;-65
2023/06/17 10:03:39;;;;;;;;;18.25;16.00;;;;;29.85;30.11;100817.06;6116604;23;46151;-62
2023/06/17 10:06:09;;;;;;;;;13.67;13.67;;;;;29.87;29.89;100820.63;6119392;23;45328;-64
2023/06/17 10:08:36;;;;;;;;;16.75;16.00;;;;;29.91;29.92;100815.81;6119966;23;45566;-62
2023/06/17 10:11:02;;;;;;;;;17.00;14.33;;;;;30.01;30.62;100822.63;6119101;23;45487;-63
2023/06/17 10:13:36;;;;;;;;;20.25;18.00;;;;;30.07;29.97;100826.94;6119249;23;46524;-63
2023/06/17 10:16:04;;;;;;;;;17.25;14.25;;;;;30.07;30.26;100818.66;6119820;23;45380;-64
2023/06/17 10:18:34;;;;;;;;;18.00;16.00;;;;;30.09;30.03;100817.59;6119937;23;45411;-65
2023/06/17 10:21:02;;;;;;;;;19.33;14.67;;;;;30.15;30.51;100810.88;6120385;23;45593;-64
2023/06/17 10:23:28;;;;;;;;;21.00;16.67;;;;;30.19;30.41;100804.19;6119186;23;45418;-63
2023/06/17 10:25:54;;;;;;;;;14.00;13.00;;;;;30.21;30.23;100795.84;6119712;23;45410;-62
2023/06/17 10:28:19;;;;;;;;;20.75;17.50;;;;;30.19;30.39;100793.19;6119625;23;45419;-62
2023/06/17 10:30:48;;;;;;;;;17.75;14.75;;;;;30.23;30.26;100799.44;6118918;23;45189;-62
2023/06/17 10:33:13;;;;;;;;;19.25;16.25;;;;;30.20;30.32;100794.97;6117604;23;46132;-63
2023/06/17 10:35:40;;;;;;;;;20.25;19.00;;;;;30.20;30.87;100792.22;6118688;23;45908;-66
2023/06/17 10:38:07;;;;;;;;;19.25;17.50;;;;;30.19;30.03;100784.91;6120134;23;45328;-62
2023/06/17 10:40:36;;;;;;;;;15.00;15.00;;;;;30.28;30.48;100792.69;6120353;23;45376;-63
2023/06/17 10:43:01;;;;;;;;;16.75;15.75;;;;;30.32;30.67;100782.38;6118028;23;46438;-62
2023/06/17 10:45:29;;;;;;;;;17.75;16.25;;;;;30.23;30.57;100764.50;6120846;23;45220;-64
2023/06/17 10:48:16;;;;;;;;;19.50;17.00;;;;;30.40;30.26;100788.38;6124001;23;45299;-64
2023/06/17 10:50:43;;;;;;;;;15.00;14.50;;;;;30.45;30.57;100788.13;6119654;23;45319;-64
2023/06/17 10:53:14;;;;;;;;;15.33;13.67;;;;;30.51;30.52;100774.00;6122669;23;45462;-65
2023/06/17 10:55:39;;;;;;;;;15.75;15.75;;;;;30.52;30.46;100784.03;6121785;23;45174;-63
2023/06/17 10:58:05;;;;;;;;;18.50;18.00;;;;;30.49;30.38;100778.69;6128438;23;45473;-66
2023/06/17 11:00:30;;;;;;;;;21.00;18.75;;;;;30.41;30.26;100757.09;6121345;23;45281;-67
2023/06/17 11:02:56;;;;;;;;;19.75;15.00;;;;;30.48;30.71;100764.03;6123435;23;45662;-68
2023/06/17 11:05:21;;;;;;;;;17.50;15.75;;;;;30.56;30.78;100774.63;6125856;23;45332;-64